Crane, Texas
Current Conditions -  °F | °C
As of 3:53 AM on Monday 22 Dec 2014 (Local Time) from KODO Reporting Station
Clear Clear  
Wind Chill: 52°   Ceiling: Unl
Heat Index: 52°   Visibility: 10mi
Dew Point: 27°   Wind: 12mph
Humidity: 38%   Direction: 260°W
Pressure: 29.73"   Gusts: NA
Location:  31.4°N, 102.35°W
Report Text: KODO 220953Z AUTO 26010KT 10SM CLR 11/M03 A2973 RMK AO2 SLP036 T01111028
Loading
Personal Weather Stations






























Interactive Weather Map New forecast layout! Learn more

10-Day Weather Forecast

Advertisements
Track Severe Weather on mobile